createdAt,value
2018-09-10T00:00:39.426Z,3.50
2018-09-10T00:03:06.754Z,3.40
2018-09-10T00:05:33.981Z,3.23
2018-09-10T00:08:01.151Z,3.43
2018-09-10T00:10:28.381Z,3.80
2018-09-10T00:12:55.834Z,4.00
2018-09-10T00:15:23.485Z,3.70
2018-09-10T00:17:50.734Z,3.13
2018-09-10T00:20:17.983Z,3.17
2018-09-10T00:22:45.300Z,3.40
2018-09-10T00:25:12.493Z,3.30
2018-09-10T00:27:39.684Z,4.30
2018-09-10T00:30:06.880Z,3.20
2018-09-10T00:32:34.104Z,3.67
2018-09-10T00:35:01.498Z,3.67
2018-09-10T00:37:28.869Z,3.73
2018-09-10T00:39:56.075Z,3.10
2018-09-10T00:42:23.889Z,3.50
2018-09-10T00:44:51.102Z,3.77
2018-09-10T00:47:18.300Z,3.40
2018-09-10T00:49:45.568Z,3.70
2018-09-10T00:52:12.807Z,3.80
2018-09-10T00:54:39.994Z,3.67
2018-09-10T00:57:07.227Z,3.53
2018-09-10T00:59:34.417Z,3.63
2018-09-10T01:03:04.617Z,3.20
2018-09-10T01:05:32.139Z,3.27
2018-09-10T01:07:59.344Z,3.50
2018-09-10T01:10:26.980Z,3.70
2018-09-10T01:12:54.163Z,3.13
2018-09-10T01:15:21.591Z,3.60
2018-09-10T01:17:48.834Z,2.97
2018-09-10T01:20:16.025Z,3.60
2018-09-10T01:22:43.233Z,3.33
2018-09-10T01:25:10.790Z,3.70
2018-09-10T01:27:37.995Z,2.93
2018-09-10T01:30:05.367Z,3.20
2018-09-10T01:32:33.136Z,3.60
2018-09-10T01:35:03.125Z,3.20
2018-09-10T01:37:30.490Z,3.20
2018-09-10T01:39:57.711Z,3.23
2018-09-10T01:42:25.038Z,3.60
2018-09-10T01:44:52.282Z,2.90
2018-09-10T01:47:19.607Z,3.40
2018-09-10T01:49:46.876Z,3.07
2018-09-10T01:52:14.086Z,3.90
2018-09-10T01:54:41.300Z,3.60
2018-09-10T01:57:08.506Z,3.27
2018-09-10T01:59:35.981Z,3.10
2018-09-10T02:02:03.274Z,3.30
2018-09-10T02:04:30.707Z,3.67
2018-09-10T02:06:57.944Z,3.17
2018-09-10T02:09:25.152Z,3.37
2018-09-10T02:11:52.342Z,3.67
2018-09-10T02:14:19.521Z,3.17
2018-09-10T02:16:46.763Z,3.87
2018-09-10T02:19:14.214Z,3.50
2018-09-10T02:21:41.678Z,3.53
2018-09-10T02:24:08.852Z,3.00
2018-09-10T02:26:36.295Z,2.87
2018-09-10T02:29:03.775Z,3.30
2018-09-10T02:31:30.939Z,3.30
2018-09-10T02:33:58.123Z,3.10
2018-09-10T02:36:25.538Z,3.40
2018-09-10T02:38:52.757Z,3.30
2018-09-10T02:41:20.104Z,3.27
2018-09-10T02:43:47.582Z,2.70
2018-09-10T02:46:14.795Z,3.40
2018-09-10T02:48:42.238Z,3.17
2018-09-10T02:51:09.639Z,3.60
2018-09-10T02:53:36.977Z,3.53
2018-09-10T02:56:04.139Z,3.30
2018-09-10T02:58:31.414Z,3.27
2018-09-10T03:00:58.653Z,3.20
2018-09-10T03:03:25.854Z,3.40
2018-09-10T03:05:53.454Z,3.97
2018-09-10T03:08:21.853Z,3.87
2018-09-10T03:17:46.290Z,3.77
2018-09-10T03:20:13.465Z,4.00
2018-09-10T03:22:40.753Z,3.47
2018-09-10T03:25:07.980Z,3.80
2018-09-10T03:27:35.428Z,3.00
2018-09-10T03:30:02.651Z,3.60
2018-09-10T03:32:29.983Z,3.30
2018-09-10T03:34:57.218Z,3.30
2018-09-10T03:37:24.459Z,3.30
2018-09-10T03:39:51.660Z,3.93
2018-09-10T03:42:18.868Z,3.83
2018-09-10T03:44:46.108Z,3.90
2018-09-10T03:47:13.747Z,3.20
2018-09-10T03:49:40.941Z,3.80
2018-09-10T03:52:08.126Z,3.70
2018-09-10T03:54:35.317Z,3.70
2018-09-10T03:57:02.534Z,3.97
2018-09-10T03:59:29.726Z,4.20
2018-09-10T04:01:57.048Z,3.93
2018-09-10T04:04:24.262Z,3.87
2018-09-10T04:06:51.648Z,4.27
2018-09-10T04:09:18.890Z,3.60
2018-09-10T04:11:46.097Z,4.00
2018-09-10T04:14:13.292Z,3.80
2018-09-10T04:16:40.513Z,3.67
2018-09-10T04:19:07.717Z,4.20
2018-09-10T04:21:35.013Z,4.07
2018-09-10T04:24:02.322Z,4.50
2018-09-10T04:26:29.519Z,4.07
2018-09-10T04:28:56.742Z,5.07
2018-09-10T04:31:24.082Z,4.00
2018-09-10T04:33:51.321Z,4.33
2018-09-10T04:36:18.619Z,4.17
2018-09-10T04:38:45.830Z,4.60
2018-09-10T04:41:13.191Z,3.87
2018-09-10T04:43:40.339Z,4.33
2018-09-10T04:46:07.508Z,3.93
2018-09-10T04:48:34.752Z,4.23
2018-09-10T04:51:02.092Z,4.43
2018-09-10T04:53:29.312Z,4.50
2018-09-10T04:55:56.594Z,4.50
2018-09-10T04:58:23.822Z,4.63
2018-09-10T05:00:51.155Z,4.70
2018-09-10T05:03:19.377Z,4.10
2018-09-10T05:05:46.680Z,4.60
2018-09-10T05:08:14.379Z,4.40
2018-09-10T05:10:41.603Z,4.70
2018-09-10T05:13:08.773Z,4.60
2018-09-10T05:15:35.991Z,4.47
2018-09-10T05:18:03.329Z,4.10
2018-09-10T05:20:30.518Z,4.33
2018-09-10T05:22:57.964Z,4.70
2018-09-10T05:25:25.443Z,4.70
2018-09-10T05:27:52.842Z,4.90
2018-09-10T05:30:20.254Z,5.13
2018-09-10T05:32:47.892Z,4.80
2018-09-10T05:35:15.178Z,5.03
2018-09-10T05:37:43.047Z,4.70
2018-09-10T05:40:10.762Z,4.60
2018-09-10T05:42:38.206Z,3.83
2018-09-10T05:45:06.078Z,4.60
2018-09-10T05:47:33.298Z,5.00
2018-09-10T05:50:00.476Z,4.57
2018-09-10T05:52:27.828Z,4.47
2018-09-10T05:54:55.031Z,5.20
2018-09-10T05:57:22.402Z,5.07
2018-09-10T05:59:49.689Z,5.47
2018-09-10T06:02:16.909Z,4.97
2018-09-10T06:04:44.429Z,4.77
2018-09-10T06:07:11.791Z,5.70
2018-09-10T06:09:39.395Z,5.20
2018-09-10T06:12:06.592Z,5.17
2018-09-10T06:14:33.787Z,5.40
2018-09-10T06:17:01.018Z,5.60
2018-09-10T06:19:28.235Z,5.60
2018-09-10T06:21:55.462Z,5.97
2018-09-10T06:24:23.175Z,6.40
2018-09-10T06:26:50.428Z,6.00
2018-09-10T06:29:17.806Z,6.50
2018-09-10T06:31:45.441Z,6.90
2018-09-10T06:34:13.039Z,6.10
2018-09-10T06:36:40.159Z,6.13
2018-09-10T06:39:08.595Z,7.40
2018-09-10T06:41:36.122Z,6.57
2018-09-10T06:44:03.654Z,7.23
2018-09-10T06:46:30.864Z,8.50
2018-09-10T06:48:58.208Z,9.07
2018-09-10T06:51:25.407Z,8.80
2018-09-10T06:53:52.678Z,6.87
2018-09-10T06:56:20.102Z,7.53
2018-09-10T06:58:47.372Z,7.20
2018-09-10T07:01:14.562Z,6.97
2018-09-10T07:03:42.105Z,6.60
2018-09-10T07:06:09.545Z,7.17
2018-09-10T07:08:36.864Z,7.10
2018-09-10T07:11:04.289Z,6.90
2018-09-10T07:13:31.575Z,7.23
2018-09-10T07:15:58.862Z,7.83
2018-09-10T07:18:26.109Z,7.10
2018-09-10T07:20:53.520Z,8.20
2018-09-10T07:23:20.922Z,7.03
2018-09-10T07:25:48.203Z,6.93
2018-09-10T07:28:15.782Z,6.93
2018-09-10T07:30:43.086Z,7.00
2018-09-10T07:33:10.287Z,7.00
2018-09-10T07:35:37.708Z,6.20
2018-09-10T07:38:04.992Z,7.23
2018-09-10T07:40:32.419Z,6.23
2018-09-10T07:42:59.836Z,5.70
2018-09-10T07:45:27.075Z,7.50
2018-09-10T07:47:54.277Z,14.80
2018-09-10T07:50:22.337Z,7.37
2018-09-10T07:52:49.612Z,9.40
2018-09-10T07:55:17.027Z,11.60
2018-09-10T07:57:44.244Z,9.93
2018-09-10T08:00:11.477Z,15.20
2018-09-10T08:02:38.727Z,6.80
2018-09-10T08:05:06.166Z,9.50
2018-09-10T08:07:33.653Z,9.50
2018-09-10T08:10:00.913Z,8.10
2018-09-10T08:13:52.489Z,8.97
2018-09-10T08:16:19.703Z,9.90
2018-09-10T08:18:47.016Z,9.67
2018-09-10T08:21:14.214Z,9.97
2018-09-10T08:23:41.491Z,10.63
2018-09-10T08:26:09.025Z,9.80
2018-09-10T08:28:36.218Z,9.80
2018-09-10T08:31:03.470Z,9.37
2018-09-10T08:33:30.706Z,8.93
2018-09-10T08:35:57.941Z,8.97
2018-09-10T08:38:25.299Z,21.37
2018-09-10T08:40:52.904Z,10.87
2018-09-10T08:43:20.159Z,10.30
2018-09-10T08:45:56.390Z,10.20
2018-09-10T08:48:23.776Z,10.40
2018-09-10T08:50:50.894Z,10.67
2018-09-10T08:53:18.234Z,10.00
2018-09-10T08:55:45.538Z,9.03
2018-09-10T08:58:12.609Z,8.70
2018-09-10T09:00:39.895Z,9.30
2018-09-10T09:03:07.054Z,8.63
2018-09-10T09:05:34.236Z,7.77
2018-09-10T09:08:01.551Z,7.10
2018-09-10T09:10:28.865Z,7.60
2018-09-10T09:12:56.210Z,6.83
2018-09-10T09:15:23.489Z,7.37
2018-09-10T09:17:50.691Z,6.80
2018-09-10T09:20:18.279Z,7.30
2018-09-10T09:22:45.737Z,7.30
2018-09-10T09:25:12.930Z,6.10
2018-09-10T09:27:40.271Z,6.47
2018-09-10T09:30:09.348Z,7.20
2018-09-10T09:32:36.926Z,6.13
2018-09-10T09:35:04.361Z,6.33
2018-09-10T09:37:36.922Z,6.10
2018-09-10T09:40:09.891Z,4.83
2018-09-10T09:42:42.434Z,5.57
2018-09-10T09:45:14.965Z,7.93
2018-09-10T09:47:42.656Z,5.80
2018-09-10T09:50:09.897Z,4.27
2018-09-10T09:52:37.326Z,4.77
2018-09-10T09:55:04.573Z,5.57
2018-09-10T09:57:31.779Z,5.13
2018-09-10T09:59:59.320Z,4.73
2018-09-10T10:02:31.994Z,4.13
2018-09-10T10:04:59.587Z,3.90
2018-09-10T10:07:26.816Z,4.50
2018-09-10T10:09:54.132Z,3.97
2018-09-10T10:12:21.412Z,5.30
2018-09-10T10:14:48.914Z,4.10
2018-09-10T10:17:19.252Z,4.47
2018-09-10T10:19:46.722Z,3.70
2018-09-10T10:22:13.961Z,3.27
2018-09-10T10:24:41.362Z,4.03
2018-09-10T10:27:09.127Z,3.47
2018-09-10T10:29:36.330Z,3.87
2018-09-10T10:32:03.746Z,3.37
2018-09-10T10:34:31.440Z,4.90
2018-09-10T10:36:58.770Z,4.17
2018-09-10T10:39:26.054Z,3.43
2018-09-10T10:41:53.639Z,3.93
2018-09-10T10:44:20.865Z,4.33
2018-09-10T10:46:48.066Z,3.73
2018-09-10T10:49:15.506Z,4.73
2018-09-10T10:51:42.944Z,4.50
2018-09-10T10:54:10.154Z,4.00
2018-09-10T10:56:38.122Z,4.27
2018-09-10T10:59:05.349Z,3.60
2018-09-10T11:01:32.718Z,3.60
2018-09-10T11:03:59.960Z,4.00
2018-09-10T11:06:27.269Z,3.47
2018-09-10T11:08:54.827Z,3.63
2018-09-10T11:11:22.450Z,4.30
2018-09-10T11:13:49.806Z,4.10
2018-09-10T11:16:17.177Z,3.00
2018-09-10T11:18:44.436Z,4.30
2018-09-10T11:21:11.701Z,3.70
2018-09-10T11:23:38.939Z,4.03
2018-09-10T11:26:06.258Z,3.87
2018-09-10T11:28:33.567Z,4.63
2018-09-10T11:31:00.794Z,4.40
2018-09-10T11:33:28.062Z,4.60
2018-09-10T11:35:55.247Z,3.60
2018-09-10T11:38:23.004Z,5.53
2018-09-10T11:40:50.241Z,5.60
2018-09-10T11:43:17.442Z,3.90
2018-09-10T11:45:44.683Z,3.63
2018-09-10T11:48:11.985Z,4.13
2018-09-10T11:50:39.772Z,4.20
2018-09-10T11:53:07.096Z,3.90
2018-09-10T11:55:34.330Z,4.00
2018-09-10T11:58:01.605Z,3.77
2018-09-10T12:00:29.010Z,3.83
2018-09-10T12:02:56.205Z,3.90
2018-09-10T12:05:23.441Z,4.30
2018-09-10T12:07:50.955Z,4.30
2018-09-10T12:10:18.541Z,3.53
2018-09-10T12:12:45.924Z,3.53
2018-09-10T12:15:13.213Z,3.80
2018-09-10T12:17:40.458Z,4.63
2018-09-10T12:20:08.061Z,4.10
2018-09-10T12:22:35.373Z,3.77
2018-09-10T12:25:03.047Z,4.27
2018-09-10T12:27:30.724Z,2.97
2018-09-10T12:29:57.930Z,3.40
2018-09-10T12:32:25.371Z,3.73
2018-09-10T12:34:52.528Z,3.80
2018-09-10T12:37:19.797Z,3.37
2018-09-10T12:39:47.077Z,5.30
2018-09-10T12:42:14.192Z,3.80
2018-09-10T12:44:41.593Z,4.10
2018-09-10T12:47:08.857Z,3.50
2018-09-10T12:49:36.146Z,3.80
2018-09-10T12:52:03.407Z,3.57
2018-09-10T12:54:30.764Z,4.17
2018-09-10T12:56:59.198Z,3.53
2018-09-10T12:59:26.396Z,5.60
2018-09-10T13:01:53.893Z,4.30
2018-09-10T13:04:21.263Z,3.23
2018-09-10T13:06:48.503Z,3.13
2018-09-10T13:09:15.738Z,3.93
2018-09-10T13:11:43.091Z,3.40
2018-09-10T13:14:10.446Z,2.97
2018-09-10T13:16:37.680Z,2.80
2018-09-10T13:19:05.051Z,2.80
2018-09-10T13:21:32.262Z,2.60
2018-09-10T13:23:59.555Z,3.20
2018-09-10T13:26:26.817Z,3.20
2018-09-10T13:28:54.406Z,2.10
2018-09-10T13:31:22.148Z,2.73
2018-09-10T13:33:49.509Z,2.90
2018-09-10T13:36:17.003Z,2.70
2018-09-10T13:38:44.227Z,2.20
2018-09-10T13:41:11.436Z,2.40
2018-09-10T13:43:38.786Z,2.53
2018-09-10T13:46:06.099Z,2.97
2018-09-10T13:48:33.422Z,2.20
2018-09-10T13:51:00.671Z,2.63
2018-09-10T13:53:28.202Z,2.37
2018-09-10T13:55:55.771Z,2.40
2018-09-10T13:58:23.169Z,2.70
2018-09-10T14:00:50.463Z,2.63
2018-09-10T14:03:17.669Z,2.50
2018-09-10T14:05:44.922Z,2.20
2018-09-10T14:08:12.374Z,2.53
2018-09-10T14:10:40.101Z,2.20
2018-09-10T14:13:07.258Z,2.60
2018-09-10T14:15:34.487Z,2.80
2018-09-10T14:18:01.819Z,2.73
2018-09-10T14:20:29.384Z,2.57
2018-09-10T14:22:56.789Z,2.60
2018-09-10T14:25:24.031Z,2.43
2018-09-10T14:27:51.217Z,2.80
2018-09-10T14:30:18.598Z,2.60
2018-09-10T14:32:46.673Z,3.23
2018-09-10T14:35:14.515Z,2.73
2018-09-10T14:37:42.204Z,2.90
2018-09-10T14:40:09.423Z,2.20
2018-09-10T14:42:36.649Z,2.63
2018-09-10T14:45:03.984Z,2.50
2018-09-10T14:47:31.618Z,2.80
2018-09-10T14:49:58.902Z,3.40
2018-09-10T14:52:26.159Z,2.13
2018-09-10T14:54:53.401Z,2.90
2018-09-10T14:57:20.852Z,2.73
2018-09-10T14:59:48.204Z,2.60
2018-09-10T15:02:15.466Z,2.47
2018-09-10T15:04:42.758Z,2.57
2018-09-10T15:07:10.045Z,2.57
2018-09-10T15:09:37.274Z,2.80
2018-09-10T15:12:04.694Z,3.00
2018-09-10T15:14:31.876Z,2.77
2018-09-10T15:16:59.113Z,3.00
2018-09-10T15:19:26.314Z,2.80
2018-09-10T15:21:53.652Z,2.40
2018-09-10T15:24:20.883Z,2.73
2018-09-10T15:26:48.173Z,2.80
2018-09-10T15:29:16.051Z,3.00
2018-09-10T15:31:43.348Z,2.50
2018-09-10T15:34:10.577Z,2.60
2018-09-10T15:36:37.888Z,2.60
2018-09-10T15:39:05.922Z,2.40
2018-09-10T15:41:33.330Z,2.40
2018-09-10T15:44:00.592Z,2.73
2018-09-10T15:46:27.851Z,2.70
2018-09-10T15:48:55.124Z,2.70
2018-09-10T15:51:22.431Z,2.60
2018-09-10T15:53:49.662Z,3.20
2018-09-10T15:56:16.917Z,3.70
2018-09-10T15:58:44.279Z,2.57
2018-09-10T16:01:11.545Z,3.33
2018-09-10T16:03:38.905Z,2.23
2018-09-10T16:06:06.142Z,2.70
2018-09-10T16:08:33.409Z,3.00
2018-09-10T16:11:00.724Z,2.60
2018-09-10T16:13:29.024Z,2.90
2018-09-10T16:15:56.204Z,3.00
2018-09-10T16:18:23.553Z,2.80
2018-09-10T16:20:50.777Z,3.17
2018-09-10T16:23:18.073Z,2.57
2018-09-10T16:25:45.551Z,2.87
2018-09-10T16:28:12.837Z,3.13
2018-09-10T16:30:40.160Z,2.47
2018-09-10T16:33:07.504Z,3.30
2018-09-10T16:35:35.380Z,3.17
2018-09-10T16:38:02.655Z,3.30
2018-09-10T16:40:30.055Z,3.33
2018-09-10T16:42:57.505Z,4.10
2018-09-10T16:45:24.730Z,4.20
2018-09-10T16:47:52.301Z,3.47
2018-09-10T16:50:19.566Z,3.73
2018-09-10T16:52:46.803Z,3.60
2018-09-10T16:55:14.116Z,4.00
2018-09-10T16:57:41.649Z,3.30
2018-09-10T17:00:09.128Z,2.80
2018-09-10T17:02:36.391Z,3.73
2018-09-10T17:05:03.672Z,3.40
2018-09-10T17:07:31.064Z,3.73
2018-09-10T17:09:58.377Z,3.30
2018-09-10T17:12:25.744Z,3.60
2018-09-10T17:14:53.438Z,3.07
2018-09-10T17:17:20.734Z,3.70
2018-09-10T17:19:48.838Z,3.70
2018-09-10T17:22:16.423Z,3.97
2018-09-10T17:24:43.627Z,3.13
2018-09-10T17:27:10.895Z,3.87
2018-09-10T17:29:38.161Z,3.80
2018-09-10T17:32:05.461Z,3.67
2018-09-10T17:34:32.692Z,3.60
2018-09-10T17:36:59.939Z,3.60
2018-09-10T17:39:27.150Z,4.10
2018-09-10T17:41:54.367Z,3.67
2018-09-10T17:44:21.678Z,4.23
2018-09-10T17:46:49.206Z,3.63
2018-09-10T17:49:16.826Z,2.60
2018-09-10T17:51:44.285Z,3.00
2018-09-10T17:54:11.556Z,3.30
2018-09-10T17:56:38.810Z,3.27
2018-09-10T17:59:06.094Z,3.23
2018-09-10T18:01:33.332Z,2.80
2018-09-10T18:04:00.677Z,2.43
2018-09-10T18:06:27.907Z,2.90
2018-09-10T18:08:55.133Z,2.53
2018-09-10T18:11:22.656Z,2.70
2018-09-10T18:13:50.036Z,2.90
2018-09-10T18:16:17.513Z,3.00
2018-09-10T18:18:44.769Z,2.90
2018-09-10T18:21:12.112Z,2.60
2018-09-10T18:23:39.404Z,3.10
2018-09-10T18:26:06.698Z,2.70
2018-09-10T18:28:33.894Z,2.80
2018-09-10T18:31:01.299Z,3.07
2018-09-10T18:33:28.744Z,3.13
2018-09-10T18:35:56.191Z,3.27
2018-09-10T18:38:23.459Z,2.90
2018-09-10T18:40:50.930Z,2.87
2018-09-10T18:43:18.332Z,3.03
2018-09-10T18:45:45.771Z,3.10
2018-09-10T18:48:13.971Z,2.70
2018-09-10T18:50:41.198Z,2.87
2018-09-10T18:53:08.635Z,3.13
2018-09-10T18:55:36.975Z,2.73
2018-09-10T18:58:04.732Z,3.90
2018-09-10T19:00:32.302Z,3.80
2018-09-10T19:02:59.595Z,3.10
2018-09-10T19:05:26.963Z,3.90
2018-09-10T19:07:54.206Z,3.13
2018-09-10T19:10:21.680Z,2.80
2018-09-10T19:12:49.270Z,3.00
2018-09-10T19:15:16.683Z,3.10
2018-09-10T19:17:44.403Z,3.10
2018-09-10T19:20:11.725Z,3.30
2018-09-10T19:22:39.128Z,2.50
2018-09-10T19:25:06.618Z,2.93
2018-09-10T19:27:33.853Z,3.10
2018-09-10T19:30:01.111Z,3.10
2018-09-10T19:32:28.441Z,2.90
2018-09-10T19:34:55.748Z,3.40
2018-09-10T19:37:23.076Z,2.90
2018-09-10T19:39:50.470Z,3.50
2018-09-10T19:42:17.843Z,3.37
2018-09-10T19:44:45.349Z,3.03
2018-09-10T19:47:12.754Z,3.47
2018-09-10T19:49:40.017Z,2.70
2018-09-10T19:52:07.258Z,2.73
2018-09-10T19:54:34.591Z,2.70
2018-09-10T19:57:01.868Z,3.07
2018-09-10T19:59:29.253Z,2.70
2018-09-10T20:01:56.884Z,3.03
2018-09-10T20:04:24.187Z,2.80
2018-09-10T20:06:51.506Z,3.47
2018-09-10T20:09:18.791Z,3.20
2018-09-10T20:11:46.078Z,3.03
2018-09-10T20:14:13.294Z,3.40
2018-09-10T20:16:40.684Z,3.30
2018-09-10T20:19:08.003Z,3.23
2018-09-10T20:21:35.439Z,3.43
2018-09-10T20:24:02.709Z,3.10
2018-09-10T20:26:29.987Z,3.10
2018-09-10T20:28:57.307Z,3.10
2018-09-10T20:31:24.562Z,3.13
2018-09-10T20:33:57.778Z,3.10
2018-09-10T20:36:25.066Z,3.50
2018-09-10T20:38:52.306Z,3.33
2018-09-10T20:41:19.585Z,3.17
2018-09-10T20:43:47.129Z,3.30
2018-09-10T20:46:14.619Z,3.30
2018-09-10T20:48:42.077Z,5.03
2018-09-10T20:51:09.358Z,4.07
2018-09-10T20:53:37.989Z,4.50
2018-09-10T20:56:05.585Z,3.93
2018-09-10T20:58:32.891Z,4.57
2018-09-10T21:01:00.425Z,4.67
2018-09-10T21:03:28.338Z,5.20
2018-09-10T21:05:56.038Z,4.53
2018-09-10T21:08:23.320Z,4.70
2018-09-10T21:10:50.600Z,4.70
2018-09-10T21:13:18.762Z,4.40
2018-09-10T21:15:46.110Z,4.10
2018-09-10T21:18:13.714Z,4.27
2018-09-10T21:20:41.129Z,3.70
2018-09-10T21:23:08.623Z,4.50
2018-09-10T21:25:35.818Z,3.77
2018-09-10T21:28:03.053Z,4.40
2018-09-10T21:30:30.890Z,3.53
2018-09-10T21:32:58.153Z,4.10
2018-09-10T21:35:25.430Z,3.50
2018-09-10T21:37:52.696Z,4.13
2018-09-10T21:40:20.229Z,4.17
2018-09-10T21:42:47.471Z,4.10
2018-09-10T21:45:14.712Z,4.40
2018-09-10T21:47:42.082Z,4.10
2018-09-10T21:50:09.435Z,4.37
2018-09-10T21:52:36.632Z,4.63
2018-09-10T21:55:03.868Z,4.13
2018-09-10T21:57:31.763Z,4.00
2018-09-10T21:59:59.299Z,3.87
2018-09-10T22:02:27.679Z,3.40
2018-09-10T22:04:54.896Z,3.97
2018-09-10T22:07:22.195Z,4.10
2018-09-10T22:09:50.011Z,3.90
2018-09-10T22:12:17.229Z,3.97
2018-09-10T22:14:44.562Z,4.23
2018-09-10T22:17:11.877Z,3.70
2018-09-10T22:19:39.643Z,4.63
2018-09-10T22:22:07.297Z,4.13
2018-09-10T22:24:34.634Z,4.27
2018-09-10T22:27:01.896Z,4.80
2018-09-10T22:29:29.170Z,4.10
2018-09-10T22:31:56.379Z,4.87
2018-09-10T22:34:23.635Z,4.00
2018-09-10T22:36:51.398Z,3.83
2018-09-10T22:39:18.815Z,3.80
2018-09-10T22:41:46.022Z,4.80
2018-09-10T22:44:13.445Z,5.40
2018-09-10T22:46:42.940Z,4.83
2018-09-10T22:49:13.181Z,3.70
2018-09-10T22:51:49.245Z,4.00
2018-09-10T22:57:11.126Z,4.10
2018-09-10T22:59:42.485Z,4.07
2018-09-10T23:02:09.775Z,4.50
2018-09-10T23:04:37.218Z,4.93
2018-09-10T23:07:04.703Z,4.57
2018-09-10T23:09:32.128Z,4.67
2018-09-10T23:11:59.391Z,4.53
2018-09-10T23:14:26.625Z,4.93
2018-09-10T23:16:54.030Z,4.80
2018-09-10T23:19:21.402Z,4.50
2018-09-10T23:21:48.618Z,5.13
2018-09-10T23:24:15.826Z,4.63
2018-09-10T23:26:43.058Z,4.60
2018-09-10T23:29:10.269Z,5.43
2018-09-10T23:31:37.509Z,5.53
2018-09-10T23:34:04.745Z,4.63
2018-09-10T23:36:32.457Z,4.87
2018-09-10T23:38:59.709Z,4.70
2018-09-10T23:41:26.900Z,4.13
2018-09-10T23:43:54.366Z,4.37
2018-09-10T23:46:21.688Z,4.77
2018-09-10T23:48:48.926Z,4.60
2018-09-10T23:51:16.164Z,5.00
2018-09-10T23:53:43.370Z,5.03
2018-09-10T23:56:10.573Z,5.30
2018-09-10T23:58:37.819Z,4.60
